Time;durP1;ratioP1;P1;durP2;ratioP2;P2;SDS_P1;SDS_P2;PMS_P1;PMS_P2;Temp;Humidity;BMP_temperature;BMP_pressure;BME280_temperature;BME280_humidity;BME280_pressure;Samples;Min_cycle;Max_cycle;Signal;HPM_P1;HPM_P2
2021/12/17 00:01:43;;;;;;;0.45;0.45;;;8.50;99.90;;;;;;5083678;28;20413;-76
2021/12/17 00:04:24;;;;;;;0.68;0.68;;;8.50;99.90;;;;;;5049708;28;20053;-77
2021/12/17 00:06:50;;;;;;;7.15;2.38;;;8.60;99.90;;;;;;5032644;28;20041;-76
2021/12/17 00:09:16;;;;;;;0.20;0.20;;;8.50;99.90;;;;;;5063412;28;20045;-76
2021/12/17 00:11:42;;;;;;;3.30;1.90;;;8.50;99.90;;;;;;5051503;28;20033;-76
2021/12/17 00:14:09;;;;;;;0.73;0.73;;;8.50;99.90;;;;;;5032640;28;20052;-76
2021/12/17 00:16:38;;;;;;;0.65;0.65;;;8.50;99.90;;;;;;5032219;28;20045;-76
2021/12/17 00:48:55;;;;;;;22.73;5.38;;;8.50;99.90;;;;;;5048906;28;20084;-77
2021/12/17 00:53:58;;;;;;;7.70;3.08;;;8.50;99.90;;;;;;5080742;28;20527;-76
2021/12/17 00:56:26;;;;;;;13.00;4.40;;;8.50;99.90;;;;;;5044575;28;20427;-76
2021/12/17 00:58:52;;;;;;;15.40;6.07;;;8.50;99.90;;;;;;5050241;28;20107;-77
2021/12/17 01:01:18;;;;;;;15.18;5.57;;;8.50;99.90;;;;;;5049269;28;20132;-77
2021/12/17 01:03:43;;;;;;;10.82;2.85;;;8.50;99.90;;;;;;5032436;28;20147;-76
2021/12/17 01:06:09;;;;;;;3.88;2.60;;;8.50;99.90;;;;;;5080640;28;20048;-76
2021/12/17 01:08:35;;;;;;;20.98;6.00;;;8.50;99.90;;;;;;5050315;28;20041;-77
2021/12/17 01:11:03;;;;;;;22.80;7.68;;;8.50;99.90;;;;;;5085248;28;20489;-76
2021/12/17 01:13:29;;;;;;;9.80;4.90;;;8.40;99.90;;;;;;5033015;28;20051;-76
2021/12/17 01:15:56;;;;;;;14.10;3.45;;;8.40;99.90;;;;;;5048187;28;20043;-76
2021/12/17 01:18:33;;;;;;;13.68;4.40;;;8.50;99.90;;;;;;5096869;28;20053;-76
2021/12/17 01:36:55;;;;;;;1.67;1.58;;;8.40;99.90;;;;;;5051791;28;20033;-77
2021/12/17 01:42:05;;;;;;;3.03;1.65;;;8.40;99.90;;;;;;5045542;28;20519;-76
2021/12/17 01:44:34;;;;;;;8.10;3.40;;;8.40;99.90;;;;;;5052352;28;20040;-76
2021/12/17 01:47:00;;;;;;;28.77;7.65;;;8.40;99.90;;;;;;5045492;28;20463;-77
2021/12/17 02:00:34;;;;;;;0.25;0.25;;;8.40;99.90;;;;;;5057082;28;20071;-76
2021/12/17 02:03:00;;;;;;;0.20;0.20;;;8.40;99.90;;;;;;5030975;28;20131;-76
2021/12/17 02:05:26;;;;;;;0.30;0.30;;;8.40;99.90;;;;;;5031617;28;20048;-77
2021/12/17 02:07:55;;;;;;;0.60;0.60;;;8.40;99.90;;;;;;5049558;28;20080;-76
2021/12/17 02:21:48;;;;;;;1.48;1.38;;;8.40;99.90;;;;;;5055190;28;20048;-76
2021/12/17 02:32:03;;;;;;;0.20;0.20;;;8.40;99.90;;;;;;5049794;28;20056;-76
2021/12/17 02:37:14;;;;;;;0.47;0.47;;;8.40;99.90;;;;;;5080018;28;20493;-76
2021/12/17 02:45:32;;;;;;;0.20;0.20;;;8.40;99.90;;;;;;5077200;28;20056;-76
2021/12/17 02:45:33;;;;;;;0.20;0.20;;;8.50;99.90;;;;;;5040380;28;20087;-76
2021/12/17 02:48:14;;;;;;;0.15;0.15;;;8.50;99.90;;;;;;5047711;28;20086;-76
2021/12/17 02:50:47;;;;;;;2.20;2.10;;;8.50;99.90;;;;;;5055292;28;20048;-76
2021/12/17 02:53:14;;;;;;;1.00;0.82;;;8.40;99.90;;;;;;5050002;28;20076;-76
2021/12/17 02:55:44;;;;;;;0.10;0.10;;;8.40;99.90;;;;;;5037411;28;20397;-76
2021/12/17 02:58:10;;;;;;;1.00;1.00;;;8.40;99.90;;;;;;5043841;28;20033;-76
2021/12/17 03:00:38;;;;;;;0.82;0.82;;;8.40;99.90;;;;;;5033941;28;20378;-76
2021/12/17 03:03:07;;;;;;;6.38;2.55;;;8.40;99.90;;;;;;5057764;28;20041;-77
2021/12/17 03:05:34;;;;;;;0.47;0.47;;;8.40;99.90;;;;;;5030540;28;20098;-76
2021/12/17 03:08:00;;;;;;;0.15;0.15;;;8.40;99.90;;;;;;5089412;28;20051;-76
2021/12/17 03:10:26;;;;;;;0.30;0.30;;;8.40;99.90;;;;;;5034662;28;20033;-76
2021/12/17 03:13:00;;;;;;;1.40;0.90;;;8.40;99.90;;;;;;5067093;28;20557;-77
2021/12/17 03:26:09;;;;;;;0.10;0.10;;;8.40;99.90;;;;;;5060291;28;20052;-76
2021/12/17 03:28:36;;;;;;;0.73;0.70;;;8.40;99.90;;;;;;5068527;28;20071;-76
2021/12/17 03:31:03;;;;;;;0.20;0.20;;;8.40;99.90;;;;;;5036804;28;20114;-76
2021/12/17 03:33:29;;;;;;;0.20;0.20;;;8.40;99.90;;;;;;5052105;28;20037;-76
2021/12/17 03:35:58;;;;;;;0.40;0.40;;;8.40;99.90;;;;;;5037345;28;20037;-76
2021/12/17 03:38:24;;;;;;;0.52;0.52;;;8.40;99.90;;;;;;5052244;28;20055;-77
2021/12/17 03:40:58;;;;;;;0.90;0.90;;;8.40;99.90;;;;;;5042482;28;20128;-77
2021/12/17 03:43:30;;;;;;;0.30;0.30;;;8.40;99.90;;;;;;5052129;28;20463;-76
2021/12/17 03:45:56;;;;;;;5.63;2.28;;;8.40;99.90;;;;;;5043715;28;20094;-76
2021/12/17 03:48:22;;;;;;;0.73;0.73;;;8.40;99.90;;;;;;5055139;28;20083;-76
2021/12/17 03:50:48;;;;;;;0.20;0.20;;;8.40;99.90;;;;;;5060011;28;20037;-76
2021/12/17 03:53:14;;;;;;;1.27;1.23;;;8.40;99.90;;;;;;5039753;28;20094;-77
2021/12/17 03:55:39;;;;;;;0.63;0.63;;;8.40;99.90;;;;;;5033911;28;20401;-76
2021/12/17 03:58:05;;;;;;;0.20;0.20;;;8.40;99.90;;;;;;5041093;28;20147;-77
2021/12/17 04:00:31;;;;;;;1.25;1.25;;;8.40;99.90;;;;;;5041635;28;20037;-76
2021/12/17 04:02:57;;;;;;;1.05;0.68;;;8.40;99.90;;;;;;5052348;28;20131;-77
2021/12/17 04:05:23;;;;;;;0.20;0.20;;;8.40;99.90;;;;;;5033047;28;20056;-76
2021/12/17 04:07:49;;;;;;;1.25;1.00;;;8.30;99.90;;;;;;5057780;28;20040;-76
2021/12/17 04:10:18;;;;;;;0.47;0.47;;;8.40;99.90;;;;;;5046611;28;20037;-76
2021/12/17 04:13:12;;;;;;;0.20;0.20;;;8.30;99.90;;;;;;5058381;28;20070;-77
2021/12/17 04:15:38;;;;;;;1.75;1.23;;;8.30;99.90;;;;;;5036531;28;20044;-76
2021/12/17 04:18:09;;;;;;;0.20;0.20;;;8.30;99.90;;;;;;5051681;28;20049;-76
2021/12/17 04:20:35;;;;;;;10.95;3.17;;;8.30;99.90;;;;;;5033700;28;20033;-76
2021/12/17 04:23:02;;;;;;;1.27;1.17;;;8.30;99.90;;;;;;5048161;28;20119;-76
2021/12/17 04:25:28;;;;;;;5.40;4.22;;;8.30;99.90;;;;;;5031807;28;20036;-76
2021/12/17 04:27:58;;;;;;;0.55;0.55;;;8.30;99.90;;;;;;5028339;28;20038;-76
2021/12/17 04:30:24;;;;;;;0.10;0.10;;;8.30;99.90;;;;;;5056450;28;20045;-77
2021/12/17 04:32:50;;;;;;;0.50;0.50;;;8.30;99.90;;;;;;5059847;28;20040;-76
2021/12/17 04:35:16;;;;;;;0.55;0.55;;;8.30;99.90;;;;;;5055691;28;20385;-76
2021/12/17 04:37:42;;;;;;;0.63;0.63;;;8.30;99.90;;;;;;5051100;28;20120;-76
2021/12/17 04:40:08;;;;;;;5.10;3.35;;;8.30;99.90;;;;;;5062014;28;20119;-76
2021/12/17 04:45:06;;;;;;;5.90;3.03;;;8.30;99.90;;;;;;5050651;28;20157;-77
2021/12/17 04:58:28;;;;;;;2.45;1.38;;;8.20;99.90;;;;;;5056856;28;20060;-76
2021/12/17 05:00:55;;;;;;;0.57;0.57;;;8.20;99.90;;;;;;5044331;28;20041;-76
2021/12/17 05:03:21;;;;;;;0.60;0.60;;;8.20;99.90;;;;;;5062588;28;20048;-76
2021/12/17 05:05:47;;;;;;;0.20;0.20;;;8.20;99.90;;;;;;5046001;28;20048;-76
2021/12/17 05:08:16;;;;;;;0.20;0.20;;;8.20;99.90;;;;;;5090006;28;20056;-76
2021/12/17 05:18:54;;;;;;;0.30;0.30;;;8.20;99.90;;;;;;5059953;28;20097;-76
2021/12/17 05:21:22;;;;;;;0.20;0.20;;;8.20;99.90;;;;;;5058650;28;20138;-76
2021/12/17 05:23:51;;;;;;;0.63;0.63;;;8.20;99.90;;;;;;5049527;28;20131;-76
2021/12/17 05:26:19;;;;;;;0.40;0.40;;;8.20;99.90;;;;;;5037970;28;20063;-76
2021/12/17 05:28:45;;;;;;;0.20;0.20;;;8.20;99.90;;;;;;5061020;28;20046;-76
2021/12/17 05:31:11;;;;;;;0.95;0.95;;;8.20;99.90;;;;;;5043952;28;20500;-76
2021/12/17 05:33:37;;;;;;;1.13;1.05;;;8.20;99.90;;;;;;5033441;28;20051;-77
2021/12/17 05:36:03;;;;;;;0.55;0.55;;;8.30;99.90;;;;;;5047073;28;20064;-76
2021/12/17 05:38:29;;;;;;;0.40;0.40;;;8.30;99.90;;;;;;5060395;28;20171;-76
2021/12/17 05:40:56;;;;;;;0.13;0.13;;;8.20;99.90;;;;;;5030958;28;20127;-77
2021/12/17 05:43:22;;;;;;;0.30;0.30;;;8.20;99.90;;;;;;5048193;28;20080;-77
2021/12/17 05:46:07;;;;;;;6.38;6.03;;;8.20;99.90;;;;;;5032901;28;20073;-76
2021/12/17 05:48:34;;;;;;;0.28;0.28;;;8.20;99.90;;;;;;5049653;28;20136;-77
2021/12/17 05:51:04;;;;;;;1.20;1.17;;;8.20;99.90;;;;;;5052954;28;20110;-76
2021/12/17 05:53:30;;;;;;;0.90;0.90;;;8.20;99.90;;;;;;5033164;28;20068;-76
2021/12/17 05:55:56;;;;;;;4.65;2.70;;;8.20;99.90;;;;;;5077566;28;21482;-76
2021/12/17 05:58:22;;;;;;;0.20;0.20;;;8.20;99.90;;;;;;5047340;28;20044;-77
2021/12/17 06:00:48;;;;;;;0.20;0.20;;;8.20;99.90;;;;;;5049310;28;20049;-76
2021/12/17 06:03:14;;;;;;;0.68;0.68;;;8.20;99.90;;;;;;5058679;28;20416;-76
2021/12/17 06:05:40;;;;;;;0.68;0.65;;;8.20;99.90;;;;;;5050525;28;20036;-76
2021/12/17 06:08:06;;;;;;;0.82;0.80;;;8.20;99.90;;;;;;5066818;28;20478;-76
2021/12/17 06:10:32;;;;;;;2.63;0.65;;;8.20;99.90;;;;;;5050937;28;20036;-76
2021/12/17 06:12:58;;;;;;;1.00;1.00;;;8.20;99.90;;;;;;5032410;28;20044;-76
2021/12/17 06:15:25;;;;;;;0.80;0.80;;;8.20;99.90;;;;;;5042179;28;20040;-76
2021/12/17 06:17:52;;;;;;;4.95;2.92;;;8.20;99.90;;;;;;5042491;28;20045;-76
2021/12/17 06:20:19;;;;;;;1.15;0.80;;;8.20;99.90;;;;;;5069684;28;20539;-76
2021/12/17 06:22:46;;;;;;;6.05;3.35;;;8.20;99.90;;;;;;5026096;28;20057;-76
2021/12/17 06:25:12;;;;;;;2.92;2.63;;;8.20;99.90;;;;;;5084186;28;20032;-77
2021/12/17 06:27:39;;;;;;;1.17;1.02;;;8.20;99.90;;;;;;5035406;28;20045;-76
2021/12/17 06:30:09;;;;;;;0.40;0.40;;;8.20;99.90;;;;;;5071541;28;20053;-76
2021/12/17 06:32:35;;;;;;;1.65;1.55;;;8.20;99.90;;;;;;5038619;28;20114;-76
2021/12/17 06:35:01;;;;;;;0.30;0.30;;;8.20;99.90;;;;;;5055273;28;20069;-76
2021/12/17 06:37:27;;;;;;;0.22;0.22;;;8.20;99.90;;;;;;5034446;28;20037;-77
2021/12/17 06:39:52;;;;;;;7.90;2.72;;;8.20;99.90;;;;;;5049201;28;20049;-76
2021/12/17 06:42:19;;;;;;;16.95;4.85;;;8.20;99.90;;;;;;5043163;28;20057;-76
2021/12/17 06:44:47;;;;;;;16.00;5.13;;;8.20;99.90;;;;;;5036869;28;20040;-76
2021/12/17 06:47:27;;;;;;;8.75;3.45;;;8.20;99.90;;;;;;5047059;28;20064;-76
2021/12/17 06:54:36;;;;;;;9.40;4.05;;;8.20;99.90;;;;;;5052732;28;20053;-76
2021/12/17 07:00:57;;;;;;;2.47;1.80;;;8.20;99.90;;;;;;5056359;28;20540;-77
2021/12/17 07:06:17;;;;;;;5.78;2.95;;;8.10;99.90;;;;;;5054711;28;20115;-77
2021/12/17 07:09:40;;;;;;;2.75;2.08;;;8.10;99.90;;;;;;5040864;28;20152;-76
2021/12/17 07:17:21;;;;;;;0.20;0.20;;;8.10;99.90;;;;;;5067179;28;20041;-76
2021/12/17 07:24:51;;;;;;;2.75;1.85;;;8.20;99.90;;;;;;5062177;28;20044;-76
2021/12/17 07:32:43;;;;;;;8.25;3.67;;;8.20;99.90;;;;;;5050153;28;20045;-76
2021/12/17 07:35:36;;;;;;;0.20;0.20;;;8.20;99.90;;;;;;5056958;28;20540;-76
2021/12/17 07:40:46;;;;;;;1.13;1.05;;;8.20;99.90;;;;;;5051724;28;20045;-77
2021/12/17 07:43:22;;;;;;;2.38;2.17;;;8.20;99.90;;;;;;5028732;28;21106;-77
2021/12/17 07:45:57;;;;;;;0.20;0.20;;;8.20;99.90;;;;;;5042207;28;20048;-77
2021/12/17 07:48:31;;;;;;;0.10;0.10;;;8.20;99.90;;;;;;5027290;28;20045;-77
2021/12/17 07:51:09;;;;;;;0.77;0.77;;;8.20;99.90;;;;;;5082082;28;20440;-77
2021/12/17 07:53:35;;;;;;;9.40;3.00;;;8.20;99.90;;;;;;5033421;28;20492;-76
2021/12/17 07:56:04;;;;;;;4.13;1.10;;;8.30;99.90;;;;;;5071700;28;20087;-76
2021/12/17 07:58:32;;;;;;;0.20;0.20;;;8.30;99.90;;;;;;5050190;28;20512;-76
2021/12/17 08:01:19;;;;;;;13.07;5.03;;;8.30;99.90;;;;;;5044975;28;20052;-77
2021/12/17 08:03:54;;;;;;;0.45;0.45;;;8.30;99.90;;;;;;5045932;28;20064;-76
2021/12/17 08:06:19;;;;;;;9.80;4.13;;;8.30;99.90;;;;;;5046219;28;20045;-76
2021/12/17 08:08:45;;;;;;;5.97;3.53;;;8.30;99.90;;;;;;5035335;28;20544;-76
2021/12/17 08:11:11;;;;;;;16.50;4.40;;;8.30;99.90;;;;;;5043572;28;20393;-76
2021/12/17 08:13:37;;;;;;;8.43;4.72;;;8.40;99.90;;;;;;5048766;28;20037;-76
2021/12/17 08:16:14;;;;;;;4.15;2.50;;;8.40;99.90;;;;;;5046904;28;20053;-76
2021/12/17 08:29:24;;;;;;;13.63;5.60;;;8.50;99.90;;;;;;5050716;28;20072;-76
2021/12/17 08:31:51;;;;;;;12.05;4.25;;;8.50;99.90;;;;;;5049759;28;20823;-76
2021/12/17 08:34:16;;;;;;;6.32;3.03;;;8.50;99.90;;;;;;5040624;28;20497;-76
2021/12/17 08:36:42;;;;;;;4.53;2.65;;;8.50;99.90;;;;;;5030653;28;20048;-77
2021/12/17 08:39:08;;;;;;;0.40;0.40;;;8.50;99.90;;;;;;5056128;28;20055;-76
2021/12/17 08:41:34;;;;;;;11.05;6.18;;;8.50;99.90;;;;;;5043045;28;20045;-76
2021/12/17 08:43:59;;;;;;;1.02;0.95;;;8.50;99.90;;;;;;5048003;28;20103;-76
2021/12/17 08:46:25;;;;;;;6.13;2.53;;;8.60;99.90;;;;;;5071330;28;20076;-77
2021/12/17 08:48:52;;;;;;;1.50;1.35;;;8.60;99.90;;;;;;5059610;28;20045;-76
2021/12/17 08:51:17;;;;;;;9.32;4.22;;;8.60;99.90;;;;;;5076732;28;20074;-76
2021/12/17 08:53:43;;;;;;;9.65;5.38;;;8.60;99.90;;;;;;5042191;28;20048;-76
2021/12/17 08:56:09;;;;;;;13.77;5.35;;;8.60;99.90;;;;;;5038331;28;20119;-76
2021/12/17 08:58:35;;;;;;;14.88;7.80;;;8.70;99.90;;;;;;5037282;28;20140;-76
2021/12/17 09:01:04;;;;;;;3.33;1.75;;;8.70;99.90;;;;;;5045582;28;20123;-76
2021/12/17 09:03:34;;;;;;;9.43;3.75;;;8.70;99.90;;;;;;5034146;28;20055;-78
2021/12/17 09:06:00;;;;;;;8.60;3.50;;;8.70;99.90;;;;;;5034445;28;20037;-77
2021/12/17 09:08:26;;;;;;;0.20;0.20;;;8.70;99.90;;;;;;5046837;28;20055;-76
2021/12/17 09:10:55;;;;;;;4.63;2.10;;;8.80;99.90;;;;;;5050667;28;20128;-77
2021/12/17 09:13:25;;;;;;;4.10;2.92;;;8.80;99.90;;;;;;5061635;28;20048;-77
2021/12/17 09:15:57;;;;;;;0.30;0.30;;;8.80;99.90;;;;;;5042122;28;20052;-77
2021/12/17 09:18:23;;;;;;;14.27;6.78;;;8.80;99.90;;;;;;5048878;28;20128;-77
2021/12/17 09:20:49;;;;;;;3.00;2.22;;;8.80;99.90;;;;;;5032023;28;20390;-77
2021/12/17 09:23:15;;;;;;;11.88;4.35;;;8.80;99.90;;;;;;5031954;28;20045;-77
2021/12/17 09:25:41;;;;;;;3.28;2.08;;;8.80;99.90;;;;;;5031483;28;20040;-77
2021/12/17 09:28:08;;;;;;;0.20;0.20;;;8.90;99.90;;;;;;5055006;28;20099;-77
2021/12/17 09:30:34;;;;;;;15.25;5.97;;;8.90;99.90;;;;;;5030560;28;20470;-77
2021/12/17 09:33:00;;;;;;;3.85;3.10;;;8.90;99.90;;;;;;5047628;28;20044;-76
2021/12/17 09:35:26;;;;;;;0.50;0.50;;;8.90;99.90;;;;;;5049323;28;20040;-76
2021/12/17 09:37:53;;;;;;;9.07;3.97;;;8.90;99.90;;;;;;5082928;28;20047;-76
2021/12/17 09:40:23;;;;;;;7.80;2.85;;;9.00;99.90;;;;;;5055316;28;20041;-76
2021/12/17 09:42:49;;;;;;;3.92;2.45;;;9.00;99.90;;;;;;5061411;28;20148;-77
2021/12/17 09:45:17;;;;;;;0.32;0.32;;;9.00;99.90;;;;;;5060904;28;20116;-76
2021/12/17 09:47:44;;;;;;;0.63;0.57;;;9.00;99.90;;;;;;5052210;28;20131;-76
2021/12/17 09:50:12;;;;;;;6.57;3.75;;;9.00;99.90;;;;;;5037102;28;20047;-76
2021/12/17 09:52:38;;;;;;;0.95;0.70;;;9.10;99.90;;;;;;5043327;28;20033;-76
2021/12/17 09:55:05;;;;;;;9.70;2.50;;;9.00;99.90;;;;;;5046473;28;20033;-76
2021/12/17 09:57:35;;;;;;;2.72;1.25;;;9.10;99.90;;;;;;5041164;28;20044;-76
2021/12/17 10:00:13;;;;;;;3.03;2.30;;;9.10;99.90;;;;;;5054884;28;20102;-76
2021/12/17 10:02:45;;;;;;;5.40;2.42;;;9.10;99.90;;;;;;5062975;28;20093;-76
2021/12/17 10:05:17;;;;;;;1.70;1.60;;;9.10;99.90;;;;;;5045419;28;20048;-76
2021/12/17 10:07:44;;;;;;;1.88;1.60;;;9.10;99.90;;;;;;5021094;28;20441;-76
2021/12/17 10:10:12;;;;;;;0.65;0.65;;;9.20;99.90;;;;;;5037442;28;20049;-76
2021/12/17 10:12:39;;;;;;;4.70;2.20;;;9.20;99.90;;;;;;5049447;28;20041;-76
2021/12/17 10:15:12;;;;;;;2.53;1.58;;;9.20;99.90;;;;;;5047573;28;20048;-76
2021/12/17 10:17:59;;;;;;;9.25;4.43;;;9.20;99.90;;;;;;5037295;28;20385;-76
2021/12/17 10:20:26;;;;;;;0.10;0.10;;;9.20;99.90;;;;;;5047884;28;20044;-76
2021/12/17 10:23:08;;;;;;;2.90;1.80;;;9.30;99.90;;;;;;5035339;28;20103;-76
2021/12/17 10:25:40;;;;;;;0.50;0.50;;;9.30;99.90;;;;;;5026825;28;20053;-76
2021/12/17 10:28:06;;;;;;;4.63;3.28;;;9.30;99.90;;;;;;5055547;28;20136;-76
2021/12/17 10:30:35;;;;;;;2.95;2.60;;;9.30;99.90;;;;;;5059702;28;20095;-77
2021/12/17 10:33:03;;;;;;;4.55;1.95;;;9.40;99.90;;;;;;5047655;28;20048;-76
2021/12/17 10:35:32;;;;;;;7.90;3.67;;;9.40;99.90;;;;;;5031416;28;20036;-76
2021/12/17 10:38:02;;;;;;;1.30;1.27;;;9.40;99.90;;;;;;5057352;28;20037;-76
2021/12/17 10:40:36;;;;;;;0.30;0.30;;;9.40;99.90;;;;;;5046637;28;20041;-76
2021/12/17 10:43:08;;;;;;;7.20;4.47;;;9.40;99.90;;;;;;5050454;28;20047;-76
2021/12/17 10:45:41;;;;;;;2.33;1.05;;;9.40;99.90;;;;;;5062042;28;20120;-77
2021/12/17 10:48:24;;;;;;;1.45;0.88;;;9.40;99.90;;;;;;5047393;28;20071;-76
2021/12/17 10:51:14;;;;;;;0.20;0.20;;;9.50;99.90;;;;;;5048511;28;20049;-76
2021/12/17 10:53:56;;;;;;;1.10;0.77;;;9.50;99.90;;;;;;5046345;28;20496;-76
2021/12/17 10:56:25;;;;;;;5.90;1.92;;;9.50;99.90;;;;;;5049566;28;20405;-76
2021/12/17 10:59:11;;;;;;;3.75;2.70;;;9.60;99.90;;;;;;5060238;28;20054;-76
2021/12/17 11:01:46;;;;;;;0.82;0.80;;;9.60;99.90;;;;;;5033093;28;20052;-76
2021/12/17 11:04:12;;;;;;;0.40;0.40;;;9.60;99.90;;;;;;5046367;28;20068;-76
2021/12/17 11:07:05;;;;;;;0.47;0.47;;;9.60;99.90;;;;;;5052612;28;20452;-76
2021/12/17 11:09:34;;;;;;;8.95;4.28;;;9.60;99.90;;;;;;5035605;28;20482;-76
2021/12/17 11:12:28;;;;;;;8.35;3.70;;;9.60;99.90;;;;;;5049893;28;20053;-76
2021/12/17 11:15:19;;;;;;;4.75;2.85;;;9.60;99.90;;;;;;5029948;28;20561;-76
2021/12/17 11:17:55;;;;;;;2.05;0.82;;;9.60;99.90;;;;;;5026153;28;20041;-76
2021/12/17 11:20:30;;;;;;;4.10;2.60;;;9.60;99.90;;;;;;5029828;28;20094;-76
2021/12/17 11:23:03;;;;;;;2.05;1.60;;;9.60;99.90;;;;;;5036467;28;20161;-76
2021/12/17 11:25:30;;;;;;;2.47;2.20;;;9.60;99.90;;;;;;5075301;28;20036;-76
2021/12/17 11:27:57;;;;;;;0.38;0.38;;;9.70;99.90;;;;;;5077030;28;20390;-77
2021/12/17 11:30:32;;;;;;;0.80;0.80;;;9.70;99.90;;;;;;5063242;28;20186;-76
2021/12/17 11:33:01;;;;;;;0.47;0.47;;;9.70;99.90;;;;;;5043877;28;20430;-76
2021/12/17 11:35:28;;;;;;;0.43;0.43;;;9.70;99.90;;;;;;5037495;28;20507;-76
2021/12/17 11:38:00;;;;;;;0.30;0.30;;;9.70;99.90;;;;;;5045370;28;20060;-77
2021/12/17 11:40:33;;;;;;;0.10;0.10;;;9.80;99.90;;;;;;5079447;28;20053;-76
2021/12/17 11:43:23;;;;;;;0.20;0.20;;;9.80;99.90;;;;;;5047964;28;20060;-76
2021/12/17 11:46:06;;;;;;;0.20;0.20;;;9.90;99.90;;;;;;5053441;28;20062;-76
2021/12/17 11:48:34;;;;;;;0.30;0.30;;;9.90;99.90;;;;;;5058651;28;20044;-76
2021/12/17 11:51:26;;;;;;;0.13;0.13;;;9.80;99.90;;;;;;5059218;28;20094;-76
2021/12/17 11:53:58;;;;;;;0.65;0.65;;;9.90;99.90;;;;;;5062205;28;20029;-76
2021/12/17 11:56:41;;;;;;;4.75;2.13;;;9.90;99.90;;;;;;5084086;28;20282;-76
2021/12/17 11:59:30;;;;;;;1.00;1.00;;;9.90;99.90;;;;;;5047238;28;20048;-76
2021/12/17 12:02:04;;;;;;;2.20;1.35;;;9.90;99.90;;;;;;5020348;28;20531;-76
2021/12/17 12:04:32;;;;;;;0.95;0.95;;;9.90;99.90;;;;;;5072974;28;20056;-76
2021/12/17 12:07:09;;;;;;;1.63;1.08;;;9.90;99.90;;;;;;5045067;28;20046;-76
2021/12/17 12:09:56;;;;;;;1.10;0.73;;;9.90;99.90;;;;;;5039076;28;20045;-76
2021/12/17 12:12:44;;;;;;;5.43;3.40;;;9.90;99.90;;;;;;5025478;28;20048;-76
2021/12/17 12:15:23;;;;;;;0.20;0.20;;;9.90;99.90;;;;;;5062598;28;20053;-76
2021/12/17 12:18:03;;;;;;;0.20;0.20;;;9.90;99.90;;;;;;5041852;28;20045;-76
2021/12/17 12:20:48;;;;;;;0.10;0.10;;;10.00;99.90;;;;;;5075234;28;20095;-76
2021/12/17 12:23:14;;;;;;;1.85;1.25;;;10.00;99.90;;;;;;5050647;28;20106;-76
2021/12/17 12:25:39;;;;;;;1.25;0.98;;;10.00;99.90;;;;;;5059698;28;20062;-76
2021/12/17 12:28:05;;;;;;;2.03;1.83;;;10.00;99.90;;;;;;5039921;28;20127;-76
2021/12/17 12:30:39;;;;;;;5.47;0.63;;;10.00;99.90;;;;;;5045798;28;20080;-76
2021/12/17 12:33:06;;;;;;;3.28;2.20;;;10.00;99.90;;;;;;5055083;28;20046;-76
2021/12/17 12:35:32;;;;;;;0.98;0.93;;;9.90;99.90;;;;;;5040485;28;20075;-76
2021/12/17 12:38:20;;;;;;;0.20;0.20;;;9.90;99.90;;;;;;5040283;28;20041;-76
2021/12/17 12:40:57;;;;;;;1.20;1.15;;;9.90;99.90;;;;;;5051886;28;20040;-76
2021/12/17 12:43:36;;;;;;;4.57;2.28;;;9.90;99.90;;;;;;5065523;28;20045;-76
2021/12/17 12:46:02;;;;;;;0.10;0.10;;;9.90;99.90;;;;;;5071055;28;20389;-76
2021/12/17 12:48:38;;;;;;;0.20;0.20;;;9.80;99.90;;;;;;5060012;28;20041;-76
2021/12/17 12:51:22;;;;;;;0.20;0.20;;;9.90;99.90;;;;;;5045186;28;20086;-76
2021/12/17 12:54:06;;;;;;;0.20;0.20;;;9.90;99.90;;;;;;5052235;28;20051;-76
2021/12/17 12:56:33;;;;;;;2.80;0.82;;;9.90;99.90;;;;;;5070527;28;20048;-76
2021/12/17 12:58:59;;;;;;;0.30;0.30;;;9.90;99.90;;;;;;5061856;28;20519;-76
2021/12/17 13:01:25;;;;;;;1.60;1.50;;;9.90;99.90;;;;;;5053218;28;20063;-76
2021/12/17 13:03:51;;;;;;;0.40;0.40;;;9.90;99.90;;;;;;5061954;28;20063;-76
2021/12/17 13:06:18;;;;;;;0.93;0.90;;;9.80;99.90;;;;;;5048290;28;20048;-76
2021/12/17 13:08:53;;;;;;;0.30;0.30;;;9.80;99.90;;;;;;5034492;28;20041;-76
2021/12/17 13:11:21;;;;;;;0.45;0.45;;;9.80;99.90;;;;;;5037977;28;20563;-76
2021/12/17 13:16:23;;;;;;;0.30;0.30;;;9.80;99.90;;;;;;5029537;28;20493;-76
2021/12/17 13:22:02;;;;;;;1.65;0.77;;;9.80;99.90;;;;;;5050292;28;20128;-76
2021/12/17 13:24:27;;;;;;;1.67;1.58;;;9.70;99.90;;;;;;5049660;28;20055;-76
2021/12/17 13:27:01;;;;;;;0.43;0.43;;;9.80;99.90;;;;;;5055995;28;20508;-76
2021/12/17 13:29:33;;;;;;;0.40;0.40;;;9.80;99.90;;;;;;5050154;28;20045;-76
2021/12/17 13:32:17;;;;;;;0.40;0.40;;;9.70;99.90;;;;;;5053875;28;20500;-76
2021/12/17 13:34:48;;;;;;;0.20;0.20;;;9.70;99.90;;;;;;5070281;28;20055;-76
2021/12/17 13:37:16;;;;;;;8.55;1.80;;;9.70;99.90;;;;;;5061704;28;20058;-76
2021/12/17 13:39:54;;;;;;;0.15;0.15;;;9.70;99.90;;;;;;5038402;28;20032;-76
2021/12/17 13:42:29;;;;;;;0.32;0.32;;;9.70;99.90;;;;;;5086801;28;20044;-76
2021/12/17 13:45:00;;;;;;;0.10;0.10;;;9.70;99.90;;;;;;5056885;28;20048;-76
2021/12/17 13:47:36;;;;;;;0.93;0.90;;;9.70;99.90;;;;;;5068417;28;20052;-76
2021/12/17 13:50:10;;;;;;;0.17;0.17;;;9.70;99.90;;;;;;5051892;28;20041;-76
2021/12/17 13:52:44;;;;;;;0.20;0.20;;;9.70;99.90;;;;;;5051059;28;20815;-76
2021/12/17 13:55:13;;;;;;;1.95;1.77;;;9.70;99.90;;;;;;5056188;28;20603;-76
2021/12/17 13:57:41;;;;;;;0.10;0.10;;;9.70;99.90;;;;;;5046809;28;20047;-76
2021/12/17 14:00:17;;;;;;;0.30;0.30;;;9.70;99.90;;;;;;5044418;28;20049;-76
2021/12/17 14:02:45;;;;;;;0.10;0.10;;;9.70;99.90;;;;;;5053405;28;20068;-76
2021/12/17 14:05:27;;;;;;;0.90;0.55;;;9.70;99.90;;;;;;5052832;28;20575;-76
2021/12/17 14:07:59;;;;;;;0.63;0.63;;;9.70;99.90;;;;;;5066305;28;20098;-76
2021/12/17 14:10:29;;;;;;;0.10;0.10;;;9.70;99.90;;;;;;5054133;28;20048;-76
2021/12/17 14:12:55;;;;;;;0.30;0.30;;;9.70;99.90;;;;;;5074552;28;20048;-76
2021/12/17 14:15:24;;;;;;;0.17;0.17;;;9.70;99.90;;;;;;5041878;28;20068;-76
2021/12/17 14:17:54;;;;;;;0.10;0.10;;;9.70;99.90;;;;;;5019318;28;20041;-76
2021/12/17 14:20:23;;;;;;;0.10;0.10;;;9.70;99.90;;;;;;5039168;28;20041;-75
2021/12/17 14:22:51;;;;;;;2.65;1.00;;;9.70;99.90;;;;;;5027819;28;20064;-76
2021/12/17 14:25:26;;;;;;;0.20;0.20;;;9.70;99.90;;;;;;5064183;28;20041;-76
2021/12/17 14:27:54;;;;;;;3.30;1.63;;;9.70;99.90;;;;;;5052418;28;20057;-76
2021/12/17 14:30:33;;;;;;;0.40;0.40;;;9.70;99.90;;;;;;5041690;28;20116;-76
2021/12/17 14:33:08;;;;;;;0.40;0.40;;;9.70;99.90;;;;;;5049575;28;20094;-76
2021/12/17 14:35:50;;;;;;;0.10;0.10;;;9.70;99.90;;;;;;5085720;28;20044;-76
2021/12/17 14:38:20;;;;;;;0.63;0.63;;;9.70;99.90;;;;;;5055194;28;20186;-76
2021/12/17 14:40:55;;;;;;;0.28;0.28;;;9.70;99.90;;;;;;5076968;28;20051;-76
2021/12/17 14:43:21;;;;;;;4.57;2.50;;;9.70;99.90;;;;;;5049450;28;20405;-76
2021/12/17 14:46:16;;;;;;;0.77;0.65;;;9.60;99.90;;;;;;5040988;28;20122;-76
2021/12/17 15:04:37;;;;;;;0.60;0.60;;;9.60;99.90;;;;;;5049483;28;20048;-76
2021/12/17 15:07:03;;;;;;;0.70;0.30;;;9.60;99.90;;;;;;5078787;28;20042;-76
2021/12/17 15:09:32;;;;;;;0.20;0.20;;;9.60;99.90;;;;;;5043543;28;20044;-76
2021/12/17 15:12:00;;;;;;;0.95;0.50;;;9.50;99.90;;;;;;5036123;28;20143;-76
2021/12/17 15:14:25;;;;;;;1.17;1.08;;;9.60;99.90;;;;;;5060166;28;20072;-76
2021/12/17 15:16:52;;;;;;;0.13;0.13;;;9.50;99.90;;;;;;5056107;28;20559;-76
2021/12/17 15:19:18;;;;;;;0.30;0.30;;;9.50;99.90;;;;;;5051735;28;20051;-76
2021/12/17 15:21:44;;;;;;;0.40;0.40;;;9.50;99.90;;;;;;5050677;28;20045;-76
2021/12/17 15:24:09;;;;;;;0.50;0.50;;;9.50;99.90;;;;;;5064148;28;20512;-76
2021/12/17 15:26:35;;;;;;;1.85;1.05;;;9.50;99.90;;;;;;5052698;28;20508;-76
2021/12/17 15:29:01;;;;;;;0.70;0.70;;;9.50;99.90;;;;;;5047586;28;20045;-76
2021/12/17 15:31:27;;;;;;;0.73;0.70;;;9.50;99.90;;;;;;5070230;28;20071;-76
2021/12/17 15:33:52;;;;;;;2.83;1.60;;;9.50;99.90;;;;;;5049851;28;20049;-76
2021/12/17 15:36:18;;;;;;;2.80;2.47;;;9.50;99.90;;;;;;5044083;28;20060;-76
2021/12/17 15:38:44;;;;;;;0.63;0.63;;;9.50;99.90;;;;;;5046774;28;20037;-76
2021/12/17 15:41:09;;;;;;;1.75;1.48;;;9.40;99.90;;;;;;5080768;28;20071;-76
2021/12/17 15:43:35;;;;;;;6.18;3.30;;;9.40;99.90;;;;;;5042770;28;20698;-76
2021/12/17 15:46:01;;;;;;;0.20;0.20;;;9.40;99.90;;;;;;5062327;28;20260;-76
2021/12/17 15:48:27;;;;;;;1.05;0.98;;;9.40;99.90;;;;;;5052138;28;20048;-76
2021/12/17 15:50:53;;;;;;;0.17;0.17;;;9.40;99.90;;;;;;5034257;28;20492;-76
2021/12/17 15:53:19;;;;;;;1.45;1.05;;;9.40;99.90;;;;;;5035033;28;20090;-76
2021/12/17 15:55:45;;;;;;;0.20;0.20;;;9.40;99.90;;;;;;5047358;28;20033;-76
2021/12/17 15:58:11;;;;;;;3.08;1.75;;;9.30;99.90;;;;;;5058543;28;20038;-76
2021/12/17 16:00:37;;;;;;;1.85;1.73;;;9.40;99.90;;;;;;5047637;28;20121;-76
2021/12/17 16:03:08;;;;;;;0.30;0.30;;;9.40;99.90;;;;;;5048613;28;20524;-76
2021/12/17 16:05:35;;;;;;;0.55;0.55;;;9.30;99.90;;;;;;5047072;28;20718;-76
2021/12/17 16:08:02;;;;;;;0.20;0.20;;;9.30;99.90;;;;;;5032593;28;20039;-76
2021/12/17 16:18:49;;;;;;;0.65;0.65;;;9.20;99.90;;;;;;5083986;28;20041;-76
2021/12/17 16:21:15;;;;;;;0.80;0.80;;;9.20;99.90;;;;;;5059847;28;20044;-76